Time;durP1;ratioP1;P1;durP2;ratioP2;P2;SDS_P1;SDS_P2;PMS_P1;PMS_P2;Temp;Humidity;BMP_temperature;BMP_pressure;BME280_temperature;BME280_humidity;BME280_pressure;Samples;Min_cycle;Max_cycle;Signal;HPM_P1;HPM_P2
2022/10/04 00:01:56;;;;;;;31.80;20.08;;;;;;;9.66;100.00;102274.22;5094459;28;20028;-44
2022/10/04 00:04:22;;;;;;;32.40;21.35;;;;;;;9.68;100.00;102268.38;5094696;28;20031;-45
2022/10/04 00:06:57;;;;;;;26.47;20.37;;;;;;;9.66;100.00;102279.38;5093565;28;20032;-44
2022/10/04 00:09:28;;;;;;;34.85;22.00;;;;;;;9.65;100.00;102286.19;5094485;28;20323;-44
2022/10/04 00:11:55;;;;;;;26.92;20.92;;;;;;;9.65;100.00;102282.75;5093348;28;20024;-43
2022/10/04 00:14:29;;;;;;;35.05;22.02;;;;;;;9.68;100.00;102264.88;5094478;28;20038;-44
2022/10/04 00:16:55;;;;;;;40.22;21.60;;;;;;;9.70;100.00;102263.31;5094229;28;20024;-45
2022/10/04 00:19:42;;;;;;;31.60;21.73;;;;;;;9.70;100.00;102251.31;5093479;28;20376;-44
2022/10/04 00:22:11;;;;;;;30.83;21.38;;;;;;;9.66;100.00;102248.50;5093428;28;20032;-44
2022/10/04 00:24:57;;;;;;;29.85;20.77;;;;;;;9.64;100.00;102250.94;5094105;28;20035;-43
2022/10/04 00:27:25;;;;;;;34.30;21.23;;;;;;;9.63;100.00;102251.78;5093247;28;20016;-45
2022/10/04 00:30:02;;;;;;;;;;;;;;;9.73;100.00;102245.44;5094361;28;20031;-46
2022/10/04 00:32:29;;;;;;;33.45;20.30;;;;;;;9.66;100.00;102245.91;5093889;28;19964;-45
2022/10/04 00:34:58;;;;;;;34.53;21.13;;;;;;;9.64;100.00;102240.66;5093084;28;20545;-44
2022/10/04 00:37:26;;;;;;;34.72;20.90;;;;;;;9.60;100.00;102235.28;5094180;28;20031;-43
2022/10/04 00:40:01;;;;;;;33.17;21.20;;;;;;;9.55;100.00;102233.34;5093022;28;20020;-45
2022/10/04 00:43:05;;;;;;;28.95;20.13;;;;;;;9.59;100.00;102238.63;5093890;28;20063;-44
2022/10/04 00:45:44;;;;;;;28.23;18.55;;;;;;;9.51;100.00;102233.94;5077579;28;20118;-46
2022/10/04 00:48:34;;;;;;;27.85;19.08;;;;;;;9.48;100.00;102244.06;5093070;28;20108;-44
2022/10/04 00:51:25;;;;;;;29.25;20.33;;;;;;;9.46;100.00;102239.63;5093732;28;20081;-46
2022/10/04 00:53:57;;;;;;;33.80;19.38;;;;;;;9.37;100.00;102242.56;5092719;28;20039;-46
2022/10/04 00:56:44;;;;;;;37.03;21.38;;;;;;;9.42;100.00;102246.28;5093626;28;20463;-44
2022/10/04 00:59:37;;;;;;;34.05;22.05;;;;;;;9.42;100.00;102236.00;5093550;28;20039;-45
2022/10/04 01:02:21;;;;;;;36.58;21.40;;;;;;;9.38;100.00;102234.94;5092981;28;20028;-44
2022/10/04 01:05:09;;;;;;;37.20;23.23;;;;;;;9.38;100.00;102224.63;5093363;28;20062;-45
2022/10/04 01:07:40;;;;;;;39.20;22.20;;;;;;;9.33;100.00;102215.75;5093363;28;20031;-44
2022/10/04 01:10:30;;;;;;;33.85;22.17;;;;;;;9.36;100.00;102209.91;5092519;28;20494;-44
2022/10/04 01:13:02;;;;;;;35.97;23.85;;;;;;;9.32;100.00;102203.72;5056400;28;20119;-44
2022/10/04 01:15:53;;;;;;;36.42;23.13;;;;;;;9.28;100.00;102200.88;5092639;28;20062;-45
2022/10/04 01:18:18;;;;;;;41.42;23.08;;;;;;;9.21;100.00;102200.53;5093208;28;20024;-45
2022/10/04 01:20:57;;;;;;;30.97;22.33;;;;;;;9.20;100.00;102203.03;5092854;28;20028;-47
2022/10/04 01:23:33;;;;;;;35.67;22.15;;;;;;;9.10;100.00;102211.00;5092637;28;20373;-44
2022/10/04 01:25:59;;;;;;;34.72;21.92;;;;;;;9.06;100.00;102199.66;5093613;28;20038;-43
2022/10/04 01:28:25;;;;;;;31.77;22.38;;;;;;;8.97;100.00;102201.69;5093332;28;20028;-44
2022/10/04 01:30:51;;;;;;;42.60;22.17;;;;;;;8.96;100.00;102194.78;5092069;28;20024;-43
2022/10/04 01:33:17;;;;;;;40.20;24.20;;;;;;;9.01;100.00;102194.25;5092892;28;20555;-44
2022/10/04 01:35:43;;;;;;;35.38;23.02;;;;;;;8.91;100.00;102194.53;5092908;28;20111;-45
2022/10/04 01:38:10;;;;;;;36.63;23.27;;;;;;;8.89;100.00;102193.53;5092400;28;20055;-46
2022/10/04 01:40:43;;;;;;;34.20;22.67;;;;;;;8.89;100.00;102188.41;5092840;28;20020;-44
2022/10/04 01:43:13;;;;;;;32.45;21.55;;;;;;;8.84;100.00;102187.25;5092314;28;20020;-44
2022/10/04 01:45:46;;;;;;;36.05;22.90;;;;;;;8.85;100.00;102189.91;5123776;28;20051;-44
2022/10/04 01:48:15;;;;;;;30.17;22.92;;;;;;;8.83;100.00;102178.66;5133978;28;20023;-48
2022/10/04 01:50:54;;;;;;;37.17;25.25;;;;;;;8.88;100.00;102179.81;5132829;28;20079;-45
2022/10/04 01:53:26;;;;;;;39.40;25.55;;;;;;;8.88;100.00;102176.34;5133729;28;20383;-44
2022/10/04 01:56:02;;;;;;;34.03;23.38;;;;;;;8.96;100.00;102181.91;5133395;28;20482;-43
2022/10/04 01:58:32;;;;;;;34.70;23.60;;;;;;;8.94;100.00;102183.53;5133132;28;20033;-44
2022/10/04 02:01:22;;;;;;;36.20;23.63;;;;;;;8.92;100.00;102169.69;5133724;28;20023;-47
2022/10/04 02:04:14;;;;;;;36.38;22.02;;;;;;;8.92;100.00;102174.84;5133432;28;20470;-44
2022/10/04 02:06:42;;;;;;;31.58;21.15;;;;;;;8.80;100.00;102165.59;5122374;28;20027;-43
2022/10/04 02:09:11;;;;;;;33.13;21.63;;;;;;;8.74;100.00;102157.56;5133493;28;20497;-47
2022/10/04 02:11:40;;;;;;;42.97;23.30;;;;;;;8.73;100.00;102166.94;5132638;28;20382;-45
2022/10/04 02:14:14;;;;;;;40.38;24.58;;;;;;;8.71;100.00;102154.78;5133517;28;20027;-49
2022/10/04 02:16:43;;;;;;;39.40;24.80;;;;;;;8.73;100.00;102158.34;5133413;28;20106;-45
2022/10/04 02:19:11;;;;;;;38.08;25.50;;;;;;;8.66;100.00;102146.84;5132984;28;20019;-46
2022/10/04 02:21:36;;;;;;;;;;;;;;;8.77;100.00;102142.31;5134043;28;20015;-44
2022/10/04 02:24:03;;;;;;;38.83;26.65;;;;;;;8.72;100.00;102116.31;5133672;28;20318;-45
2022/10/04 02:26:29;;;;;;;43.42;27.88;;;;;;;8.73;100.00;102117.22;5132751;28;20075;-43
2022/10/04 02:28:54;;;;;;;47.67;30.73;;;;;;;8.78;100.00;102128.66;5133205;28;20024;-46
2022/10/04 02:34:07;;;;;;;58.53;34.80;;;;;;;8.84;100.00;102123.84;5132772;28;20164;-44
2022/10/04 02:36:35;;;;;;;52.88;33.03;;;;;;;8.85;100.00;102117.91;5133108;28;20410;-45
2022/10/04 02:39:11;;;;;;;54.47;31.42;;;;;;;8.79;100.00;102116.69;5133482;28;20017;-43
2022/10/04 02:41:44;;;;;;;53.65;33.53;;;;;;;8.86;100.00;102109.41;5132306;28;20031;-43
2022/10/04 02:44:19;;;;;;;44.20;30.27;;;;;;;8.81;100.00;102105.69;5133795;27;20131;-46
2022/10/04 02:46:51;;;;;;;50.90;33.30;;;;;;;8.79;100.00;102099.59;5136037;27;20366;-47
2022/10/04 02:49:38;;;;;;;53.58;32.42;;;;;;;8.82;100.00;102094.63;5137071;27;20043;-44
2022/10/04 02:52:09;;;;;;;;;;;;;;;8.83;100.00;102088.69;5137325;27;20072;-44
2022/10/04 02:54:45;;;;;;;45.08;31.75;;;;;;;8.74;100.00;102080.44;5135901;27;20255;-44
2022/10/04 02:57:15;;;;;;;57.20;31.15;;;;;;;8.66;100.00;102069.72;5136867;27;20496;-44
2022/10/04 02:59:41;;;;;;;48.33;31.67;;;;;;;8.68;100.00;102072.38;5136603;27;20090;-44
2022/10/04 03:02:39;;;;;;;48.53;32.00;;;;;;;8.70;100.00;102075.91;5135800;27;20497;-44
2022/10/04 03:05:09;;;;;;;45.92;31.48;;;;;;;8.64;100.00;102066.19;5080340;27;20539;-44
2022/10/04 03:07:37;;;;;;;48.88;30.92;;;;;;;8.63;100.00;102063.53;5135635;27;20027;-44
2022/10/04 03:10:07;;;;;;;49.95;31.17;;;;;;;8.60;100.00;102063.34;5136727;27;20027;-45
2022/10/04 03:12:33;;;;;;;45.15;29.75;;;;;;;8.54;100.00;102069.88;5136184;27;20450;-45
2022/10/04 03:14:59;;;;;;;47.50;30.60;;;;;;;8.53;100.00;102063.00;5135509;27;20027;-44
2022/10/04 03:17:24;;;;;;;44.70;28.80;;;;;;;8.44;100.00;102067.56;5136597;27;20069;-46
2022/10/04 03:19:50;;;;;;;46.58;30.10;;;;;;;8.44;100.00;102062.41;5136185;27;20039;-44
2022/10/04 03:22:17;;;;;;;50.00;30.17;;;;;;;8.37;100.00;102052.59;5135504;27;20541;-45
2022/10/04 03:24:48;;;;;;;47.97;30.08;;;;;;;8.32;100.00;102056.59;5136030;27;20019;-44
2022/10/04 03:27:28;;;;;;;46.15;28.98;;;;;;;8.26;100.00;102051.94;5136205;27;20030;-44
2022/10/04 03:29:55;;;;;;;50.97;32.83;;;;;;;8.30;100.00;102047.88;5135286;27;20023;-48
2022/10/04 03:32:20;;;;;;;48.35;31.30;;;;;;;8.26;100.00;102040.81;5136030;27;20355;-44
2022/10/04 03:34:54;;;;;;;48.55;31.38;;;;;;;8.17;100.00;102043.72;5135922;27;20042;-45
2022/10/04 03:37:20;;;;;;;54.33;33.67;;;;;;;8.26;100.00;102043.38;5135397;27;20031;-49
2022/10/04 03:39:48;;;;;;;53.40;36.95;;;;;;;8.29;100.00;102036.75;5135788;27;20038;-45
2022/10/04 03:42:16;;;;;;;56.55;36.42;;;;;;;8.28;100.00;102046.94;5135819;27;20027;-44
2022/10/04 03:44:46;;;;;;;57.10;36.15;;;;;;;8.29;100.00;102043.53;5134724;27;20122;-45
2022/10/04 03:47:26;;;;;;;58.85;35.50;;;;;;;8.31;100.00;102042.84;5135885;27;20027;-45
2022/10/04 03:49:54;;;;;;;57.30;36.38;;;;;;;8.28;100.00;102034.09;5134763;27;20101;-45
2022/10/04 03:52:32;;;;;;;52.00;34.47;;;;;;;8.27;100.00;102037.44;5135600;27;20020;-44
2022/10/04 03:55:01;;;;;;;52.80;33.92;;;;;;;8.19;100.00;102035.31;5135661;27;20031;-47
2022/10/04 03:57:28;;;;;;;47.22;31.73;;;;;;;8.11;100.00;102035.66;5134032;27;20055;-44
2022/10/04 03:59:55;;;;;;;48.75;30.85;;;;;;;8.06;100.00;102030.25;5135466;27;20022;-44
2022/10/04 04:02:42;;;;;;;48.70;30.48;;;;;;;8.03;100.00;102022.34;5135476;27;20355;-44
2022/10/04 04:05:18;;;;;;;53.47;32.78;;;;;;;8.01;100.00;102023.97;5134713;27;20111;-48
2022/10/04 04:08:05;;;;;;;52.47;32.15;;;;;;;8.00;100.00;102017.94;5135301;27;20382;-44
2022/10/04 04:10:34;;;;;;;;;;;;;;;8.07;100.00;102026.91;5135644;27;20145;-43
2022/10/04 04:13:06;;;;;;;55.00;33.42;;;;;;;8.03;100.00;102023.25;5134542;27;19954;-44
2022/10/04 04:15:33;;;;;;;68.75;37.17;;;;;;;8.09;100.00;102027.88;5134878;27;20023;-44
2022/10/04 04:18:02;;;;;;;58.38;33.50;;;;;;;8.00;100.00;102027.31;5134546;27;20023;-48
2022/10/04 04:20:34;;;;;;;53.70;34.92;;;;;;;8.02;100.00;102031.75;5135187;27;20038;-45
2022/10/04 04:23:14;;;;;;;58.72;35.25;;;;;;;8.05;100.00;102025.91;5135205;27;20026;-45
2022/10/04 04:25:47;;;;;;;55.75;33.83;;;;;;;8.05;100.00;102028.47;5133913;27;20462;-47
2022/10/04 04:28:29;;;;;;;53.13;33.80;;;;;;;8.07;100.00;102030.34;5134996;27;20015;-45
2022/10/04 04:31:37;;;;;;;54.45;32.40;;;;;;;8.06;100.00;102030.25;5134879;27;20019;-44
2022/10/04 04:34:13;;;;;;;50.63;32.78;;;;;;;8.02;100.00;102030.88;5120820;27;20118;-45
2022/10/04 04:36:40;;;;;;;55.38;34.33;;;;;;;8.04;100.00;102022.47;5134746;27;20015;-45
2022/10/04 04:39:36;;;;;;;56.53;33.10;;;;;;;8.00;100.00;102022.19;5134127;27;20374;-44
2022/10/04 04:42:06;;;;;;;57.65;33.67;;;;;;;8.00;100.00;102017.06;5134737;27;20027;-44
2022/10/04 04:44:32;;;;;;;57.67;33.33;;;;;;;7.97;100.00;102016.88;5134226;27;20039;-44
2022/10/04 04:46:59;;;;;;;52.58;33.05;;;;;;;8.01;100.00;102018.84;5134086;27;20023;-44
2022/10/04 04:49:28;;;;;;;61.88;33.35;;;;;;;8.02;100.00;102011.22;5134765;27;20020;-44
2022/10/04 04:51:56;;;;;;;55.55;33.15;;;;;;;8.06;100.00;102015.72;5134431;27;20098;-44
2022/10/04 04:54:25;;;;;;;51.38;32.88;;;;;;;8.08;100.00;102002.97;5133628;27;20058;-44
2022/10/04 04:56:52;;;;;;;54.50;33.30;;;;;;;8.10;100.00;101992.81;5134176;27;20486;-47
2022/10/04 04:59:21;;;;;;;56.65;33.97;;;;;;;8.12;100.00;101999.81;5134304;27;20069;-44
2022/10/04 05:01:47;;;;;;;53.13;33.03;;;;;;;8.15;100.00;102001.69;5133407;27;20031;-47
2022/10/04 05:04:12;;;;;;;50.35;33.05;;;;;;;8.17;100.00;101995.84;5134476;27;20015;-48
2022/10/04 05:06:47;;;;;;;51.53;32.93;;;;;;;8.19;100.00;102011.31;5133806;27;20373;-45
2022/10/04 05:09:25;;;;;;;60.35;31.73;;;;;;;8.16;100.00;102014.59;5133436;27;20318;-48
2022/10/04 05:11:53;;;;;;;47.22;30.55;;;;;;;8.15;100.00;102005.13;5134160;27;20027;-49
2022/10/04 05:14:18;;;;;;;43.90;30.63;;;;;;;8.16;100.00;102003.41;5133586;27;20031;-48
2022/10/04 05:16:48;;;;;;;48.17;31.00;;;;;;;8.12;100.00;102001.47;5134119;27;20030;-46
2022/10/04 05:19:29;;;;;;;46.05;29.80;;;;;;;8.10;100.00;102005.66;5134164;27;20019;-44
2022/10/04 05:21:58;;;;;;;44.78;29.02;;;;;;;8.01;100.00;102004.31;5133170;27;20023;-45
2022/10/04 05:24:30;;;;;;;56.20;30.83;;;;;;;7.99;100.00;102005.91;5134017;27;20031;-44
2022/10/04 05:26:59;;;;;;;44.95;30.35;;;;;;;7.98;100.00;101992.97;5134138;27;20033;-48
2022/10/04 05:29:30;;;;;;;52.17;30.98;;;;;;;7.97;100.00;101996.34;5133213;27;20015;-43
2022/10/04 05:32:21;;;;;;;51.30;30.40;;;;;;;7.96;100.00;102010.84;5133990;27;20019;-44
2022/10/04 05:34:49;;;;;;;51.70;30.35;;;;;;;7.95;100.00;102008.19;5133747;27;20092;-47
2022/10/04 05:37:39;;;;;;;54.03;30.17;;;;;;;7.94;100.00;102011.56;5133476;27;20028;-47
2022/10/04 05:40:22;;;;;;;55.35;32.55;;;;;;;7.93;100.00;102009.78;5133913;28;20121;-46
2022/10/04 05:42:48;;;;;;;46.75;29.48;;;;;;;7.93;100.00;102009.78;5132751;28;20027;-44
2022/10/04 05:45:24;;;;;;;49.22;29.33;;;;;;;7.89;100.00;102019.88;5133557;28;20039;-49
2022/10/04 05:47:52;;;;;;;44.72;28.23;;;;;;;7.88;100.00;102012.97;5133657;28;20059;-48
2022/10/04 05:50:24;;;;;;;;;;;;;;;7.96;100.00;102017.69;5133466;28;20031;-49
2022/10/04 05:52:51;;;;;;;44.55;27.40;;;;;;;7.91;100.00;102018.31;5133535;28;19965;-50
2022/10/04 05:55:27;;;;;;;43.60;28.30;;;;;;;7.90;100.00;102019.09;5133605;28;20024;-48
2022/10/04 05:58:18;;;;;;;45.15;26.63;;;;;;;7.87;100.00;102020.56;5132892;28;20027;-46
2022/10/04 06:00:50;;;;;;;47.35;26.90;;;;;;;7.89;100.00;102019.88;5133509;28;20030;-48
2022/10/04 06:03:50;;;;;;;43.83;26.88;;;;;;;7.90;100.00;102026.78;5133582;28;20023;-46
2022/10/04 06:06:27;;;;;;;48.20;25.90;;;;;;;7.91;100.00;102030.22;5128348;28;20039;-49
2022/10/04 06:09:11;;;;;;;37.72;24.23;;;;;;;7.90;100.00;102034.50;5133573;28;20023;-44
2022/10/04 06:12:07;;;;;;;38.42;24.25;;;;;;;7.91;100.00;102033.69;5132675;28;20089;-49
2022/10/04 06:15:10;;;;;;;41.65;24.50;;;;;;;7.93;100.00;102032.88;5133545;28;20059;-47
2022/10/04 06:18:03;;;;;;;41.03;24.80;;;;;;;7.95;100.00;102018.47;5132432;28;20474;-48
2022/10/04 06:20:56;;;;;;;37.88;23.20;;;;;;;8.00;100.00;102028.19;5136185;27;20496;-44
2022/10/04 06:23:25;;;;;;;41.15;23.30;;;;;;;8.03;100.00;102032.63;5137538;27;20059;-48
2022/10/04 06:25:53;;;;;;;38.08;23.98;;;;;;;8.06;100.00;102028.56;5136291;27;20031;-45
2022/10/04 06:28:46;;;;;;;38.50;22.45;;;;;;;8.11;100.00;102030.50;5137381;27;20426;-48
2022/10/04 06:31:32;;;;;;;40.67;21.40;;;;;;;8.14;100.00;102023.88;5137441;27;20114;-49
2022/10/04 06:34:27;;;;;;;32.05;19.30;;;;;;;8.19;100.00;102025.03;5137332;27;20023;-48
2022/10/04 06:37:14;;;;;;;32.45;19.38;;;;;;;8.20;100.00;102026.81;5136997;27;20019;-47
2022/10/04 06:40:07;;;;;;;31.75;19.05;;;;;;;8.23;100.00;102015.84;5136331;27;20050;-45
2022/10/04 06:42:55;;;;;;;32.78;17.35;;;;;;;8.26;100.00;102022.84;5136836;27;20418;-49
2022/10/04 06:45:32;;;;;;;29.00;16.45;;;;;;;8.22;100.00;102014.97;5136713;27;20125;-46
2022/10/04 06:48:03;;;;;;;29.65;17.35;;;;;;;8.22;100.00;102020.09;5136881;27;20477;-49
2022/10/04 06:50:54;;;;;;;30.83;16.00;;;;;;;8.22;100.00;102012.41;5137199;27;20122;-46
2022/10/04 06:53:54;;;;;;;29.98;16.45;;;;;;;8.21;100.00;102015.75;5136198;27;20053;-48
2022/10/04 06:56:39;;;;;;;25.92;15.68;;;;;;;8.20;100.00;102015.66;5136978;27;20114;-48
2022/10/04 06:59:23;;;;;;;27.60;15.40;;;;;;;8.20;100.00;102019.09;5136931;27;20035;-48
2022/10/04 07:01:57;;;;;;;27.92;16.17;;;;;;;8.23;100.00;102021.84;5135636;27;20038;-46
2022/10/04 07:04:35;;;;;;;30.17;16.23;;;;;;;8.26;100.00;102010.88;5136666;27;20031;-48
2022/10/04 07:10:29;;;;;;;30.63;16.60;;;;;;;8.31;100.00;102008.56;5136306;27;20390;-48
2022/10/04 07:13:07;;;;;;;29.80;15.68;;;;;;;8.32;100.00;102006.09;5136624;27;20035;-49
2022/10/04 07:15:47;;;;;;;27.90;14.63;;;;;;;8.39;100.00;102007.31;5135531;27;20031;-43
2022/10/04 07:18:20;;;;;;;31.80;15.65;;;;;;;8.50;100.00;102006.28;5136637;27;20031;-49
2022/10/04 07:20:49;;;;;;;29.70;15.48;;;;;;;8.62;100.00;102010.34;5135238;27;20026;-47
2022/10/04 07:23:23;;;;;;;26.80;14.88;;;;;;;8.71;100.00;102000.56;5136491;27;20114;-49
2022/10/04 07:25:54;;;;;;;27.25;13.95;;;;;;;8.81;100.00;101995.16;5136169;27;20027;-49
2022/10/04 07:31:19;;;;;;;24.27;13.88;;;;;;;9.10;100.00;102001.00;5136074;27;20041;-48
2022/10/04 07:33:52;;;;;;;25.05;13.40;;;;;;;9.30;100.00;102003.78;5136036;27;20023;-46
2022/10/04 07:36:23;;;;;;;26.60;13.95;;;;;;;9.40;100.00;102006.03;5135507;27;20067;-50
2022/10/04 07:39:06;;;;;;;22.45;12.82;;;;;;;9.53;100.00;102005.88;5135888;27;20019;-49
2022/10/04 07:41:38;;;;;;;25.17;12.52;;;;;;;9.70;100.00;102000.72;5135640;27;20474;-49
2022/10/04 07:44:34;;;;;;;27.73;12.70;;;;;;;9.82;100.00;102008.19;5134882;27;20023;-48
2022/10/04 07:47:08;;;;;;;21.35;12.70;;;;;;;10.03;100.00;102019.59;5135866;27;20071;-44
2022/10/04 07:49:38;;;;;;;24.88;11.75;;;;;;;10.19;100.00;102022.94;5134723;27;20023;-48
2022/10/04 07:52:36;;;;;;;25.67;12.38;;;;;;;10.28;100.00;102012.19;5135680;27;20023;-48
2022/10/04 07:55:23;;;;;;;31.40;12.82;;;;;;;10.39;100.00;102008.47;5135812;27;20110;-47
2022/10/04 07:58:07;;;;;;;26.73;11.93;;;;;;;10.56;100.00;102004.16;5134675;27;20079;-49
2022/10/04 08:00:41;;;;;;;25.95;11.55;;;;;;;10.68;100.00;101998.69;5135293;27;20117;-47
2022/10/04 08:03:31;;;;;;;21.15;11.18;;;;;;;10.84;100.00;102013.19;5134881;27;20035;-47
2022/10/04 08:06:16;;;;;;;20.25;10.77;;;;;;;10.93;100.00;101998.16;5135493;27;20473;-47
2022/10/04 08:09:00;;;;;;;24.98;12.40;;;;;;;11.03;100.00;102002.91;5135021;27;20027;-48
2022/10/04 08:11:50;;;;;;;23.13;12.73;;;;;;;11.19;100.00;102004.53;5134727;27;20031;-48
2022/10/04 08:14:39;;;;;;;24.98;12.90;;;;;;;11.30;100.00;101996.38;5135273;27;20460;-50
2022/10/04 08:17:18;;;;;;;24.63;11.98;;;;;;;11.40;98.81;101989.91;5134375;27;20062;-48
2022/10/04 08:20:01;;;;;;;23.42;11.63;;;;;;;11.48;97.67;101989.44;5135152;27;20092;-47
2022/10/04 08:22:40;;;;;;;24.70;10.95;;;;;;;11.65;97.42;101994.47;5135235;27;20030;-49
2022/10/04 08:25:27;;;;;;;19.83;11.40;;;;;;;11.84;97.70;101988.41;5134314;27;20031;-48
2022/10/04 08:31:01;;;;;;;23.67;10.98;;;;;;;12.18;95.65;101990.72;5135164;27;20037;-48
2022/10/04 08:33:29;;;;;;;23.23;10.48;;;;;;;12.19;93.29;101989.03;5134968;27;20047;-48
2022/10/04 08:36:04;;;;;;;21.30;10.45;;;;;;;12.26;93.28;101987.59;5134349;27;20062;-49
2022/10/04 08:38:45;;;;;;;20.88;9.48;;;;;;;12.19;93.20;102000.25;5133928;27;20363;-48
2022/10/04 08:41:49;;;;;;;21.25;11.05;;;;;;;12.22;94.60;101999.50;5134895;27;20027;-49
2022/10/04 08:44:33;;;;;;;21.67;10.15;;;;;;;12.42;91.22;101995.16;5134543;27;20136;-49
2022/10/04 08:47:16;;;;;;;21.35;10.18;;;;;;;12.73;91.48;102001.56;5133697;27;20401;-47
2022/10/04 08:50:06;;;;;;;19.63;9.68;;;;;;;12.89;89.37;101997.84;5134410;27;20026;-50
2022/10/04 08:52:57;;;;;;;21.45;9.65;;;;;;;13.11;88.99;102002.13;5133533;27;20472;-48
2022/10/04 08:55:47;;;;;;;21.50;10.05;;;;;;;13.23;87.62;101995.66;5134627;27;20110;-49
2022/10/04 08:58:30;;;;;;;18.23;9.57;;;;;;;13.39;86.37;102000.59;5134619;27;20031;-49
2022/10/04 09:01:33;;;;;;;26.98;10.73;;;;;;;13.38;84.11;101996.25;5133505;27;20023;-49
2022/10/04 09:04:36;;;;;;;20.27;9.90;;;;;;;13.58;85.02;101993.47;5134499;27;20035;-47
2022/10/04 09:07:23;;;;;;;20.45;10.35;;;;;;;13.77;82.46;102001.06;5133451;27;20068;-49
2022/10/04 09:10:21;;;;;;;24.60;10.47;;;;;;;13.88;81.30;102003.16;5134192;27;20034;-47
2022/10/04 09:13:01;;;;;;;20.73;9.68;;;;;;;14.12;80.68;102006.56;5133976;27;20470;-45
2022/10/04 09:15:39;;;;;;;27.42;10.55;;;;;;;14.24;79.99;102013.91;5133662;27;20066;-49
2022/10/04 09:18:07;;;;;;;;;;;;;;;14.41;84.52;102008.38;5134771;27;20023;-49
2022/10/04 09:21:06;;;;;;;27.55;10.10;;;;;;;14.79;79.96;102001.84;5133280;27;19915;-49
2022/10/04 09:24:08;;;;;;;25.15;10.77;;;;;;;14.99;80.61;102001.59;5133971;27;20027;-49
2022/10/04 09:26:44;;;;;;;24.23;9.95;;;;;;;15.30;76.10;101995.56;5133810;27;20494;-48
2022/10/04 09:29:40;;;;;;;24.27;10.13;;;;;;;15.53;75.68;101989.25;5133379;27;20028;-47
2022/10/04 09:32:26;;;;;;;22.33;11.30;;;;;;;15.68;73.89;101989.66;5133977;27;20481;-48
2022/10/04 09:35:08;;;;;;;24.67;10.30;;;;;;;16.12;73.72;101983.88;5132951;27;20035;-49
2022/10/04 09:38:01;;;;;;;20.20;10.20;;;;;;;16.40;70.26;101988.03;5133847;27;20031;-46
2022/10/04 09:40:27;;;;;;;31.15;11.75;;;;;;;16.66;66.35;101979.94;5133885;28;20031;-49
2022/10/04 09:43:11;;;;;;;19.38;9.30;;;;;;;16.85;66.72;101975.13;5132981;28;20383;-50
2022/10/04 09:46:15;;;;;;;21.40;10.77;;;;;;;17.02;68.00;101973.81;5133468;28;20047;-47
2022/10/04 09:49:12;;;;;;;23.60;10.50;;;;;;;17.39;67.43;101965.84;5132744;28;20129;-49
2022/10/04 09:52:20;;;;;;;18.38;10.18;;;;;;;17.71;65.62;101974.28;5133710;28;20023;-50
2022/10/04 09:55:08;;;;;;;21.58;10.27;;;;;;;17.51;63.53;101980.88;5128414;27;20115;-50
2022/10/04 09:58:04;;;;;;;19.38;9.63;;;;;;;17.88;64.50;101982.41;5137206;27;20019;-48
2022/10/04 10:00:58;;;;;;;21.52;9.05;;;;;;;17.96;64.43;101982.59;5138039;27;20038;-49
2022/10/04 10:03:47;;;;;;;19.70;8.95;;;;;;;18.29;62.11;101978.75;5136993;27;20470;-48
2022/10/04 10:06:40;;;;;;;18.35;9.18;;;;;;;18.62;63.71;101980.13;5137906;27;20046;-46
2022/10/04 10:09:20;;;;;;;15.90;8.23;;;;;;;18.75;59.85;101974.22;5137718;27;20038;-48
2022/10/04 10:15:21;;;;;;;20.95;8.23;;;;;;;19.25;61.00;101977.50;5137675;27;20099;-48
2022/10/04 10:18:13;;;;;;;22.42;8.68;;;;;;;19.37;59.99;101972.41;5136674;27;20023;-50
2022/10/04 10:20:54;;;;;;;19.25;8.80;;;;;;;19.29;56.42;101965.31;5137371;27;20062;-49
2022/10/04 10:23:36;;;;;;;17.73;7.93;;;;;;;19.46;57.81;101955.03;5137638;27;20030;-49
2022/10/04 10:26:22;;;;;;;18.90;7.85;;;;;;;19.16;56.82;101951.22;5137403;27;20474;-48
2022/10/04 10:28:50;;;;;;;19.80;8.32;;;;;;;19.07;55.92;101955.50;5137349;27;20038;-48
2022/10/04 10:31:28;;;;;;;17.52;8.75;;;;;;;19.03;56.44;101953.72;5136735;27;20037;-48
2022/10/04 10:33:59;;;;;;;16.10;8.90;;;;;;;18.90;56.57;101943.94;5137141;27;20038;-49
2022/10/04 10:37:00;;;;;;;19.20;8.57;;;;;;;19.27;57.23;101954.84;5137184;27;20031;-48
2022/10/04 10:39:58;;;;;;;17.08;8.65;;;;;;;19.39;57.29;101960.22;5136616;27;20034;-48
2022/10/04 10:42:49;;;;;;;22.23;9.32;;;;;;;19.12;57.84;101959.91;5137155;27;20390;-49
2022/10/04 10:45:32;;;;;;;17.90;8.50;;;;;;;19.00;59.04;101958.88;5136054;27;20393;-45
2022/10/04 10:48:20;;;;;;;19.13;9.57;;;;;;;19.20;57.06;101959.13;5137125;27;20083;-50
2022/10/04 10:51:29;;;;;;;22.55;8.88;;;;;;;19.51;58.09;101961.19;5136172;27;20035;-49
2022/10/04 10:54:25;;;;;;;19.05;8.25;;;;;;;19.86;57.81;101971.19;5136043;27;20023;-48
2022/10/04 10:57:09;;;;;;;21.60;9.63;;;;;;;20.29;52.90;101968.03;5136760;27;20076;-49
2022/10/04 11:00:13;;;;;;;23.70;9.13;;;;;;;20.02;54.65;101961.72;5135667;27;20046;-49
2022/10/04 11:03:04;;;;;;;19.30;8.27;;;;;;;19.67;54.91;101954.41;5099185;27;20031;-47
2022/10/04 11:06:07;;;;;;;19.35;9.13;;;;;;;19.51;55.98;101943.78;5136168;27;20024;-50
2022/10/04 11:09:00;;;;;;;19.52;8.15;;;;;;;19.39;56.12;101943.66;5136416;27;20037;-48
2022/10/04 11:11:35;;;;;;;18.70;7.90;;;;;;;19.80;55.55;101951.03;5136507;27;20428;-50
2022/10/04 11:14:31;;;;;;;19.50;7.93;;;;;;;20.47;54.08;101939.34;5135707;27;20110;-50
2022/10/04 11:17:19;;;;;;;22.52;7.43;;;;;;;21.02;54.04;101933.50;5136574;27;20027;-48
2022/10/04 11:20:04;;;;;;;18.92;7.47;;;;;;;20.58;50.19;101936.78;5136160;27;20099;-48
2022/10/04 11:22:48;;;;;;;17.48;7.13;;;;;;;20.55;51.13;101936.75;5136229;27;20076;-50
2022/10/04 11:25:58;;;;;;;20.15;7.45;;;;;;;20.59;50.94;101928.03;5136428;27;20062;-50
2022/10/04 11:28:34;;;;;;;18.75;7.55;;;;;;;20.61;50.77;101930.69;5117534;27;20043;-50
2022/10/04 11:31:16;;;;;;;17.73;6.97;;;;;;;20.72;53.73;101919.44;5136432;27;20019;-48
2022/10/04 11:34:11;;;;;;;17.73;7.07;;;;;;;21.31;51.41;101911.72;5135760;27;20476;-49
2022/10/04 11:36:56;;;;;;;21.02;8.60;;;;;;;21.07;50.76;101916.94;5135995;27;20030;-48
2022/10/04 11:39:47;;;;;;;15.43;7.60;;;;;;;20.68;50.85;101915.00;5136015;27;20023;-49
2022/10/04 11:42:37;;;;;;;20.77;7.60;;;;;;;21.10;51.35;101904.72;5135268;27;20031;-49
2022/10/04 11:45:26;;;;;;;20.33;7.32;;;;;;;21.01;50.69;101902.94;5135856;27;20131;-49
2022/10/04 11:47:57;;;;;;;21.58;8.23;;;;;;;20.92;49.38;101904.66;5135559;27;20430;-50
2022/10/04 11:51:11;;;;;;;18.48;7.05;;;;;;;21.25;51.76;101900.38;5135946;27;20054;-48
2022/10/04 11:54:15;;;;;;;12.18;5.90;;;;;;;21.21;50.83;101902.09;5135400;27;20070;-48
2022/10/04 11:57:01;;;;;;;18.58;6.95;;;;;;;21.19;50.60;101888.13;5134655;27;20035;-50
2022/10/04 12:00:04;;;;;;;15.25;6.28;;;;;;;21.09;49.12;101888.97;5135772;27;20023;-47
2022/10/04 12:02:52;;;;;;;17.42;6.22;;;;;;;20.50;50.35;101896.56;5134905;27;20049;-48
2022/10/04 12:05:37;;;;;;;15.45;6.18;;;;;;;20.50;50.20;101892.22;5135592;27;20084;-49
2022/10/04 12:08:27;;;;;;;20.02;6.53;;;;;;;20.21;50.94;101894.69;5135501;27;20023;-50
2022/10/04 12:12:35;;;;;;;18.17;7.07;;;;;;;20.04;50.74;101903.28;5134449;27;20161;-48
2022/10/04 12:14:27;;;;;;;16.98;6.78;;;;;;;19.77;53.00;101908.25;5134981;27;20481;-50
2022/10/04 12:17:01;;;;;;;13.75;6.60;;;;;;;19.79;51.67;101902.19;5133225;27;20031;-47
2022/10/04 12:19:52;;;;;;;15.75;6.53;;;;;;;19.56;52.71;101895.03;5135457;27;20037;-49
2022/10/04 12:22:45;;;;;;;21.25;7.43;;;;;;;19.19;54.28;101883.34;5135270;27;20019;-49
2022/10/04 12:25:31;;;;;;;19.55;8.02;;;;;;;18.92;55.00;101882.16;5134497;27;20023;-50